Time;durP1;ratioP1;P1;durP2;ratioP2;P2;SDS_P1;SDS_P2;PMS_P1;PMS_P2;Temp;Humidity;BMP_temperature;BMP_pressure;BME280_temperature;BME280_humidity;BME280_pressure;Samples;Min_cycle;Max_cycle;Signal;HPM_P1;HPM_P2
2022/03/17 00:02:02;;;;;;;3.10;2.80;;;;;;;;;;5162049;27;20256;-68
2022/03/17 00:04:51;;;;;;;2.90;2.70;;;;;;;;;;5165489;27;20311;-68
2022/03/17 00:07:39;;;;;;;3.30;3.00;;;;;;;;;;5159640;27;20688;-67
2022/03/17 00:10:26;;;;;;;3.20;2.90;;;;;;;;;;5163703;27;20761;-68
2022/03/17 00:13:13;;;;;;;3.20;2.90;;;;;;;;;;5155833;27;20677;-68
2022/03/17 00:16:00;;;;;;;3.37;2.80;;;;;;;;;;5157033;27;20280;-68
2022/03/17 00:18:47;;;;;;;3.53;3.00;;;;;;;;;;5162058;27;20206;-67
2022/03/17 00:21:36;;;;;;;3.33;3.00;;;;;;;;;;5156989;27;20206;-67
2022/03/17 00:24:23;;;;;;;3.67;3.37;;;;;;;;;;5156126;27;20217;-67
2022/03/17 00:27:10;;;;;;;3.40;3.07;;;;;;;;;;5157065;27;20378;-67
2022/03/17 00:29:57;;;;;;;3.40;3.10;;;;;;;;;;5163647;27;20756;-67
2022/03/17 00:32:44;;;;;;;3.70;2.93;;;;;;;;;;5149607;27;20222;-67
2022/03/17 00:35:38;;;;;;;3.57;3.10;;;;;;;;;;5161898;27;20211;-68
2022/03/17 00:38:27;;;;;;;3.77;2.90;;;;;;;;;;5161569;27;20248;-68
2022/03/17 00:41:14;;;;;;;3.07;2.77;;;;;;;;;;5148970;27;20257;-67
2022/03/17 00:44:01;;;;;;;3.67;3.23;;;;;;;;;;5154399;27;20366;-67
2022/03/17 00:46:48;;;;;;;3.50;3.20;;;;;;;;;;5158605;27;20284;-68
2022/03/17 00:49:35;;;;;;;3.33;3.10;;;;;;;;;;5164393;27;20285;-67
2022/03/17 00:52:22;;;;;;;3.37;3.17;;;;;;;;;;5166605;27;20231;-68
2022/03/17 00:55:10;;;;;;;3.43;3.23;;;;;;;;;;5151006;27;20330;-68
2022/03/17 00:57:57;;;;;;;3.50;3.17;;;;;;;;;;5153160;27;20260;-68
2022/03/17 01:00:44;;;;;;;3.60;3.30;;;;;;;;;;5151840;27;20205;-67
2022/03/17 01:03:31;;;;;;;3.60;3.30;;;;;;;;;;5157447;27;20306;-68
2022/03/17 01:06:19;;;;;;;3.77;3.47;;;;;;;;;;5154204;27;20237;-67
2022/03/17 01:09:06;;;;;;;4.30;3.90;;;;;;;;;;5159407;27;20233;-68
2022/03/17 01:11:54;;;;;;;3.83;3.53;;;;;;;;;;5156645;27;20255;-68
2022/03/17 01:14:41;;;;;;;3.90;3.60;;;;;;;;;;5155396;27;20305;-67
2022/03/17 01:17:29;;;;;;;4.30;4.00;;;;;;;;;;5158073;27;20307;-70
2022/03/17 01:20:16;;;;;;;3.70;3.40;;;;;;;;;;5159074;27;20285;-68
2022/03/17 01:23:04;;;;;;;3.90;3.70;;;;;;;;;;5147923;27;20223;-67
2022/03/17 01:25:51;;;;;;;4.20;3.90;;;;;;;;;;5154679;27;20207;-69
2022/03/17 01:28:40;;;;;;;3.80;3.50;;;;;;;;;;5156299;27;20280;-68
2022/03/17 01:31:27;;;;;;;3.90;3.60;;;;;;;;;;5151045;27;20206;-67
2022/03/17 01:34:14;;;;;;;4.23;3.93;;;;;;;;;;5151050;27;20631;-68
2022/03/17 01:37:01;;;;;;;4.00;3.80;;;;;;;;;;5157796;27;20216;-68
2022/03/17 01:39:48;;;;;;;3.77;3.57;;;;;;;;;;5161734;27;20346;-67
2022/03/17 01:42:35;;;;;;;4.10;3.80;;;;;;;;;;5155169;27;20239;-67
2022/03/17 01:45:25;;;;;;;4.10;3.80;;;;;;;;;;5154789;27;20720;-67
2022/03/17 01:48:12;;;;;;;4.27;3.97;;;;;;;;;;5158056;27;20237;-68
2022/03/17 01:50:59;;;;;;;4.20;3.90;;;;;;;;;;5155028;27;20685;-67
2022/03/17 01:53:46;;;;;;;4.43;4.13;;;;;;;;;;5149156;27;20222;-68
2022/03/17 01:56:33;;;;;;;4.37;4.07;;;;;;;;;;5153649;27;20347;-68
2022/03/17 01:59:21;;;;;;;4.37;4.07;;;;;;;;;;5159464;27;20205;-72
2022/03/17 02:02:12;;;;;;;4.77;4.37;;;;;;;;;;5151260;27;20224;-71
2022/03/17 02:05:03;;;;;;;4.87;4.47;;;;;;;;;;5149052;27;20613;-71
2022/03/17 02:07:51;;;;;;;4.70;4.30;;;;;;;;;;5149236;27;20213;-72
2022/03/17 02:13:39;;;;;;;5.17;4.70;;;;;;;;;;5155328;27;20209;-71
2022/03/17 02:16:28;;;;;;;4.57;4.27;;;;;;;;;;5160071;27;20245;-72
2022/03/17 02:19:16;;;;;;;4.73;4.43;;;;;;;;;;5165317;27;20266;-71
2022/03/17 02:22:04;;;;;;;4.80;4.50;;;;;;;;;;5161472;27;20254;-71
2022/03/17 02:27:58;;;;;;;5.00;4.57;;;;;;;;;;5168342;27;20273;-72
2022/03/17 02:30:46;;;;;;;4.73;4.33;;;;;;;;;;5165452;27;20225;-72
2022/03/17 02:33:35;;;;;;;5.10;4.70;;;;;;;;;;5152129;27;20609;-72
2022/03/17 02:36:24;;;;;;;4.77;4.37;;;;;;;;;;5170664;27;20214;-71
2022/03/17 02:39:11;;;;;;;5.20;4.80;;;;;;;;;;5157117;27;20286;-71
2022/03/17 02:42:00;;;;;;;4.87;4.43;;;;;;;;;;5165096;27;20206;-71
2022/03/17 02:44:48;;;;;;;4.87;4.57;;;;;;;;;;5149717;27;20355;-71
2022/03/17 02:47:36;;;;;;;5.03;4.53;;;;;;;;;;5149063;27;20261;-71
2022/03/17 02:50:22;;;;;;;4.67;4.33;;;;;;;;;;5162141;27;20206;-71
2022/03/17 02:53:11;;;;;;;5.07;4.67;;;;;;;;;;5153397;27;20258;-71
2022/03/17 02:55:58;;;;;;;5.53;5.13;;;;;;;;;;5161024;27;20304;-71
2022/03/17 02:58:46;;;;;;;5.10;4.70;;;;;;;;;;5161400;27;20233;-71
2022/03/17 03:01:33;;;;;;;6.27;4.90;;;;;;;;;;5160147;27;20304;-71
2022/03/17 03:04:20;;;;;;;5.00;4.70;;;;;;;;;;5150993;27;20342;-71
2022/03/17 03:07:07;;;;;;;4.80;4.50;;;;;;;;;;5159888;27;20285;-72
2022/03/17 03:09:56;;;;;;;5.20;4.80;;;;;;;;;;5157802;27;20592;-71
2022/03/17 03:12:43;;;;;;;5.23;4.93;;;;;;;;;;5155688;27;20280;-71
2022/03/17 03:15:31;;;;;;;5.17;4.77;;;;;;;;;;5153365;27;20259;-71
2022/03/17 03:18:18;;;;;;;5.80;5.37;;;;;;;;;;5152984;27;20961;-71
2022/03/17 03:21:06;;;;;;;5.47;5.13;;;;;;;;;;5157586;27;20353;-71
2022/03/17 03:23:53;;;;;;;5.57;5.17;;;;;;;;;;5168421;27;20265;-71
2022/03/17 03:26:41;;;;;;;5.77;5.37;;;;;;;;;;5154069;27;20249;-71
2022/03/17 03:29:28;;;;;;;5.20;4.80;;;;;;;;;;5158434;27;20260;-71
2022/03/17 03:32:16;;;;;;;5.40;5.00;;;;;;;;;;5159687;27;20288;-71
2022/03/17 03:37:22;;;;;;;5.53;5.10;;;;;;;;;;5158035;27;20254;-71
2022/03/17 03:38:10;;;;;;;5.53;5.13;;;;;;;;;;5164214;27;20292;-71
2022/03/17 03:40:59;;;;;;;5.87;4.93;;;;;;;;;;5162793;27;20865;-71
2022/03/17 03:43:45;;;;;;;5.60;5.20;;;;;;;;;;5152483;27;20397;-72
2022/03/17 03:46:32;;;;;;;5.83;5.43;;;;;;;;;;5158200;27;20287;-71
2022/03/17 03:49:21;;;;;;;5.93;5.47;;;;;;;;;;5160420;27;20343;-71
2022/03/17 03:52:09;;;;;;;6.23;5.83;;;;;;;;;;5158049;27;20324;-71
2022/03/17 03:54:56;;;;;;;5.93;5.53;;;;;;;;;;5160884;27;20286;-71
2022/03/17 03:57:46;;;;;;;6.30;5.70;;;;;;;;;;5145157;27;20209;-72
2022/03/17 04:00:33;;;;;;;5.60;5.27;;;;;;;;;;5154648;27;20205;-71
2022/03/17 04:03:20;;;;;;;5.43;5.10;;;;;;;;;;5159581;27;20565;-71
2022/03/17 04:06:09;;;;;;;6.10;5.67;;;;;;;;;;5159732;27;20752;-71
2022/03/17 04:08:55;;;;;;;6.03;5.63;;;;;;;;;;5162201;27;20313;-72
2022/03/17 04:11:43;;;;;;;5.93;5.53;;;;;;;;;;5157389;27;20264;-71
2022/03/17 04:14:30;;;;;;;6.10;5.70;;;;;;;;;;5158280;27;20205;-71
2022/03/17 04:17:17;;;;;;;6.00;5.60;;;;;;;;;;5153477;27;20741;-71
2022/03/17 04:20:06;;;;;;;6.00;5.60;;;;;;;;;;5155923;27;20197;-71
2022/03/17 04:22:54;;;;;;;6.33;5.83;;;;;;;;;;5161199;27;20226;-71
2022/03/17 04:25:41;;;;;;;6.60;6.20;;;;;;;;;;5145629;27;20203;-71
2022/03/17 04:28:28;;;;;;;6.37;5.97;;;;;;;;;;5162009;27;20229;-71
2022/03/17 04:31:15;;;;;;;6.53;6.13;;;;;;;;;;5158160;27;20328;-72
2022/03/17 04:34:02;;;;;;;6.37;5.97;;;;;;;;;;5158169;27;20347;-71
2022/03/17 04:36:49;;;;;;;6.90;6.37;;;;;;;;;;5158799;27;20255;-71
2022/03/17 04:39:38;;;;;;;6.27;5.77;;;;;;;;;;5154415;27;20202;-71
2022/03/17 04:42:25;;;;;;;6.17;5.77;;;;;;;;;;5154895;27;20276;-73
2022/03/17 04:45:11;;;;;;;6.13;5.73;;;;;;;;;;5155294;27;20217;-71
2022/03/17 04:47:58;;;;;;;6.73;6.23;;;;;;;;;;5161505;27;20213;-71
2022/03/17 04:50:45;;;;;;;5.83;5.53;;;;;;;;;;5158536;27;20344;-71
2022/03/17 04:53:32;;;;;;;6.37;5.97;;;;;;;;;;5160131;27;20252;-71
2022/03/17 04:56:21;;;;;;;6.30;5.90;;;;;;;;;;5151771;27;20615;-71
2022/03/17 04:59:07;;;;;;;6.37;5.90;;;;;;;;;;5154874;27;20238;-71
2022/03/17 05:01:54;;;;;;;5.80;5.40;;;;;;;;;;5153123;27;20267;-71
2022/03/17 05:04:41;;;;;;;6.53;6.00;;;;;;;;;;5163304;27;20236;-71
2022/03/17 05:07:28;;;;;;;6.30;5.90;;;;;;;;;;5150354;27;20626;-71
2022/03/17 05:10:15;;;;;;;6.50;6.10;;;;;;;;;;5150289;27;20221;-71
2022/03/17 05:13:05;;;;;;;6.60;6.10;;;;;;;;;;5163534;27;20205;-71
2022/03/17 05:15:52;;;;;;;6.97;6.47;;;;;;;;;;5162130;27;20213;-71
2022/03/17 05:18:39;;;;;;;6.23;5.83;;;;;;;;;;5153989;27;20282;-71
2022/03/17 05:21:26;;;;;;;6.87;6.37;;;;;;;;;;5158050;27;20242;-71
2022/03/17 05:24:13;;;;;;;6.53;6.13;;;;;;;;;;5163357;27;20200;-71
2022/03/17 05:27:00;;;;;;;6.10;5.70;;;;;;;;;;5156100;27;20582;-71
2022/03/17 05:29:48;;;;;;;5.87;5.47;;;;;;;;;;5156098;27;20819;-71
2022/03/17 05:32:35;;;;;;;6.70;6.20;;;;;;;;;;5155200;27;20731;-72
2022/03/17 05:35:23;;;;;;;6.70;6.20;;;;;;;;;;5164530;27;20619;-71
2022/03/17 05:38:10;;;;;;;6.03;5.63;;;;;;;;;;5151409;27;20223;-71
2022/03/17 05:40:57;;;;;;;6.67;6.13;;;;;;;;;;5160334;27;20249;-71
2022/03/17 05:43:44;;;;;;;6.83;6.33;;;;;;;;;;5161067;27;20723;-71
2022/03/17 05:46:33;;;;;;;6.73;6.23;;;;;;;;;;5163669;27;20201;-71
2022/03/17 05:49:20;;;;;;;7.47;6.87;;;;;;;;;;5157410;27;20322;-71
2022/03/17 05:52:08;;;;;;;7.30;6.70;;;;;;;;;;5154616;27;20716;-71
2022/03/17 05:54:55;;;;;;;8.03;7.43;;;;;;;;;;5158155;27;20201;-71
2022/03/17 05:57:44;;;;;;;7.50;6.90;;;;;;;;;;5149714;27;20580;-71
2022/03/17 06:00:32;;;;;;;7.63;7.03;;;;;;;;;;5164219;27;20619;-71
2022/03/17 06:03:20;;;;;;;7.50;6.90;;;;;;;;;;5157091;27;20281;-71
2022/03/17 06:06:07;;;;;;;7.33;6.73;;;;;;;;;;5156168;27;20206;-71
2022/03/17 06:08:54;;;;;;;7.20;6.60;;;;;;;;;;5154168;27;20225;-71
2022/03/17 06:11:41;;;;;;;7.83;7.23;;;;;;;;;;5159946;27;20286;-71
2022/03/17 06:14:28;;;;;;;6.83;6.33;;;;;;;;;;5149197;27;20212;-74
2022/03/17 06:17:15;;;;;;;6.63;6.13;;;;;;;;;;5141598;27;20295;-71
2022/03/17 06:20:04;;;;;;;6.90;6.40;;;;;;;;;;5154830;27;20201;-71
2022/03/17 06:22:53;;;;;;;7.03;6.43;;;;;;;;;;5156167;27;20216;-71
2022/03/17 06:25:40;;;;;;;6.47;6.07;;;;;;;;;;5164855;27;20229;-70
2022/03/17 06:28:27;;;;;;;6.90;6.40;;;;;;;;;;5154654;27;20287;-72
2022/03/17 06:31:14;;;;;;;7.33;6.73;;;;;;;;;;5148906;27;20272;-71
2022/03/17 06:34:01;;;;;;;6.67;6.17;;;;;;;;;;5158593;27;20245;-72
2022/03/17 06:36:49;;;;;;;6.37;5.87;;;;;;;;;;5154718;27;20286;-71
2022/03/17 06:39:36;;;;;;;6.97;6.47;;;;;;;;;;5157998;27;20239;-71
2022/03/17 06:42:23;;;;;;;7.23;6.63;;;;;;;;;;5154542;27;20268;-71
2022/03/17 06:45:11;;;;;;;7.00;6.43;;;;;;;;;;5153721;27;20740;-71
2022/03/17 06:47:58;;;;;;;7.83;7.03;;;;;;;;;;5153974;27;20661;-71
2022/03/17 06:50:45;;;;;;;7.80;7.00;;;;;;;;;;5149546;27;20320;-72
2022/03/17 06:53:33;;;;;;;7.47;6.77;;;;;;;;;;5152332;27;20683;-72
2022/03/17 06:56:20;;;;;;;8.07;7.27;;;;;;;;;;5155500;27;20760;-71
2022/03/17 06:59:07;;;;;;;7.67;6.97;;;;;;;;;;5155906;27;20595;-67
2022/03/17 07:01:54;;;;;;;7.10;6.53;;;;;;;;;;5160065;27;20686;-67
2022/03/17 07:04:41;;;;;;;8.00;6.70;;;;;;;;;;5155914;27;20233;-70
2022/03/17 07:07:29;;;;;;;7.40;6.67;;;;;;;;;;5160966;27;20309;-67
2022/03/17 07:10:17;;;;;;;7.27;6.67;;;;;;;;;;5154420;27;20643;-66
2022/03/17 07:13:04;;;;;;;7.23;6.37;;;;;;;;;;5159255;27;20260;-68
2022/03/17 07:15:51;;;;;;;6.83;6.23;;;;;;;;;;5155086;27;20243;-69
2022/03/17 07:18:38;;;;;;;6.67;6.17;;;;;;;;;;5154160;27;20213;-67
2022/03/17 07:21:25;;;;;;;6.30;5.80;;;;;;;;;;5158611;27;20229;-67
2022/03/17 07:24:12;;;;;;;6.57;6.07;;;;;;;;;;5160291;27;20254;-67
2022/03/17 07:27:00;;;;;;;6.47;5.97;;;;;;;;;;5153823;27;20289;-68
2022/03/17 07:29:47;;;;;;;6.83;6.33;;;;;;;;;;5152384;27;20270;-67
2022/03/17 07:32:34;;;;;;;7.07;6.47;;;;;;;;;;5153543;27;20207;-67
2022/03/17 07:35:22;;;;;;;6.67;6.17;;;;;;;;;;5159984;27;20833;-67
2022/03/17 07:38:09;;;;;;;7.40;6.80;;;;;;;;;;5159259;27;20772;-68
2022/03/17 07:40:56;;;;;;;6.13;5.63;;;;;;;;;;5158085;27;20200;-67
2022/03/17 07:43:46;;;;;;;6.13;5.63;;;;;;;;;;5158234;27;20289;-67
2022/03/17 07:46:33;;;;;;;6.63;6.13;;;;;;;;;;5158701;27;20214;-68
2022/03/17 07:49:20;;;;;;;6.50;6.00;;;;;;;;;;5157671;27;20227;-67
2022/03/17 07:52:08;;;;;;;6.70;6.00;;;;;;;;;;5155960;27;20239;-67
2022/03/17 07:54:55;;;;;;;6.67;6.07;;;;;;;;;;5162731;27;20662;-67
2022/03/17 07:57:42;;;;;;;6.73;6.13;;;;;;;;;;5156307;27;20239;-67
2022/03/17 08:00:30;;;;;;;7.13;6.53;;;;;;;;;;5157079;27;20209;-67
2022/03/17 08:03:17;;;;;;;6.70;6.20;;;;;;;;;;5153378;27;20231;-67
2022/03/17 08:06:05;;;;;;;6.50;6.03;;;;;;;;;;5151846;27;20304;-68
2022/03/17 08:08:52;;;;;;;6.37;5.97;;;;;;;;;;5159963;27;20721;-68
2022/03/17 08:11:39;;;;;;;7.10;6.60;;;;;;;;;;5153279;27;20222;-68
2022/03/17 08:14:26;;;;;;;6.40;5.90;;;;;;;;;;5157227;27;20223;-68
2022/03/17 08:17:14;;;;;;;6.67;6.17;;;;;;;;;;5162423;27;20683;-67
2022/03/17 08:20:02;;;;;;;6.40;6.00;;;;;;;;;;5159915;27;20232;-68
2022/03/17 08:22:50;;;;;;;6.87;6.37;;;;;;;;;;5156401;27;20214;-68
2022/03/17 08:25:37;;;;;;;6.77;6.27;;;;;;;;;;5161236;27;20211;-67
2022/03/17 08:28:25;;;;;;;6.63;6.13;;;;;;;;;;5157941;27;20204;-68
2022/03/17 08:31:14;;;;;;;6.53;6.13;;;;;;;;;;5154384;27;20230;-68
2022/03/17 08:34:02;;;;;;;7.43;6.83;;;;;;;;;;5156140;27;20200;-68
2022/03/17 08:36:50;;;;;;;7.10;6.60;;;;;;;;;;5154187;27;20211;-68
2022/03/17 08:39:37;;;;;;;6.57;6.17;;;;;;;;;;5160424;27;20282;-68
2022/03/17 08:42:23;;;;;;;6.47;6.03;;;;;;;;;;5140602;27;20770;-67
2022/03/17 08:51:21;;;;;;;7.27;6.77;;;;;;;;;;5156581;27;20267;-67
2022/03/17 08:54:09;;;;;;;6.67;6.07;;;;;;;;;;5155316;27;20261;-68
2022/03/17 08:56:59;;;;;;;6.70;6.30;;;;;;;;;;5150419;27;20215;-67
2022/03/17 08:59:46;;;;;;;7.13;6.47;;;;;;;;;;5161427;27;20552;-67
2022/03/17 09:02:33;;;;;;;7.10;6.50;;;;;;;;;;5159925;27;20735;-68
2022/03/17 09:05:20;;;;;;;7.27;6.77;;;;;;;;;;5154437;27;20208;-68
2022/03/17 09:08:09;;;;;;;6.83;6.33;;;;;;;;;;5156739;27;20211;-67
2022/03/17 09:10:56;;;;;;;6.40;6.00;;;;;;;;;;5161627;27;20772;-68
2022/03/17 09:13:43;;;;;;;6.83;6.33;;;;;;;;;;5157492;27;20681;-68
2022/03/17 09:16:30;;;;;;;6.93;6.43;;;;;;;;;;5151051;27;20685;-69
2022/03/17 09:19:19;;;;;;;6.93;6.50;;;;;;;;;;5150174;27;20331;-67
2022/03/17 09:22:08;;;;;;;6.73;6.30;;;;;;;;;;5148136;27;20283;-68
2022/03/17 09:24:56;;;;;;;7.20;6.70;;;;;;;;;;5148888;27;20287;-68
2022/03/17 09:27:43;;;;;;;6.83;6.33;;;;;;;;;;5156443;27;20219;-68
2022/03/17 09:30:30;;;;;;;7.20;6.70;;;;;;;;;;5164018;27;20232;-69
2022/03/17 09:33:17;;;;;;;6.50;6.10;;;;;;;;;;5155445;27;20204;-68
2022/03/17 09:36:05;;;;;;;7.10;6.60;;;;;;;;;;5157168;27;20838;-67
2022/03/17 09:41:55;;;;;;;6.63;6.23;;;;;;;;;;5154461;27;20260;-69
2022/03/17 09:44:42;;;;;;;7.20;6.60;;;;;;;;;;5154053;27;20210;-68
2022/03/17 09:47:33;;;;;;;6.60;6.20;;;;;;;;;;5160346;27;20262;-67
2022/03/17 09:50:20;;;;;;;6.40;6.00;;;;;;;;;;5158991;27;20247;-67
2022/03/17 09:53:08;;;;;;;6.87;6.37;;;;;;;;;;5153993;27;20701;-68
2022/03/17 09:55:55;;;;;;;6.63;6.23;;;;;;;;;;5148204;27;20238;-68
2022/03/17 09:58:47;;;;;;;6.67;6.17;;;;;;;;;;5158072;27;20202;-67
2022/03/17 10:01:35;;;;;;;6.70;6.20;;;;;;;;;;5158299;27;20197;-67
2022/03/17 10:04:22;;;;;;;7.20;6.50;;;;;;;;;;5153337;27;20207;-68
2022/03/17 10:07:09;;;;;;;7.10;6.60;;;;;;;;;;5156321;27;20243;-68
2022/03/17 10:09:56;;;;;;;7.13;6.43;;;;;;;;;;5163868;27;20312;-68
2022/03/17 10:12:43;;;;;;;6.93;6.33;;;;;;;;;;5159493;27;20290;-68
2022/03/17 10:15:32;;;;;;;6.73;6.23;;;;;;;;;;5156669;27;20366;-68
2022/03/17 10:18:23;;;;;;;6.77;6.10;;;;;;;;;;5165018;27;20287;-67
2022/03/17 10:21:12;;;;;;;7.20;6.50;;;;;;;;;;5162820;27;20601;-67
2022/03/17 10:24:01;;;;;;;6.60;6.13;;;;;;;;;;5147237;27;20282;-68
2022/03/17 10:26:50;;;;;;;6.93;6.33;;;;;;;;;;5149869;27;20667;-68
2022/03/17 10:29:36;;;;;;;6.70;6.20;;;;;;;;;;5152946;27;20226;-68
2022/03/17 10:32:25;;;;;;;6.80;6.30;;;;;;;;;;5163774;27;20242;-67
2022/03/17 10:35:12;;;;;;;6.60;6.10;;;;;;;;;;5151301;27;20293;-68
2022/03/17 10:38:09;;;;;;;6.77;6.27;;;;;;;;;;5160914;27;20266;-68
2022/03/17 10:41:11;;;;;;;7.07;6.47;;;;;;;;;;5160855;27;20207;-67
2022/03/17 10:44:00;;;;;;;6.50;6.00;;;;;;;;;;5160213;27;20236;-68
2022/03/17 10:47:01;;;;;;;7.13;6.63;;;;;;;;;;5156345;27;20574;-67
2022/03/17 10:50:05;;;;;;;6.77;6.23;;;;;;;;;;5161681;27;20627;-67
2022/03/17 10:52:55;;;;;;;7.10;6.40;;;;;;;;;;5157931;27;20591;-68
2022/03/17 10:55:42;;;;;;;6.80;6.30;;;;;;;;;;5151959;27;20560;-67
2022/03/17 10:58:29;;;;;;;6.87;6.37;;;;;;;;;;5164502;27;20730;-68
2022/03/17 11:01:16;;;;;;;7.00;6.40;;;;;;;;;;5158271;27;20329;-67
2022/03/17 11:04:04;;;;;;;6.87;6.30;;;;;;;;;;5157766;27;20229;-67
2022/03/17 11:06:54;;;;;;;6.53;5.77;;;;;;;;;;5157911;27;20246;-68
2022/03/17 11:09:42;;;;;;;7.33;6.60;;;;;;;;;;5161937;27;20257;-68
2022/03/17 11:12:29;;;;;;;6.90;6.47;;;;;;;;;;5163363;27;20302;-67
2022/03/17 11:15:26;;;;;;;6.90;6.40;;;;;;;;;;5155171;27;20684;-67
2022/03/17 11:18:17;;;;;;;6.80;6.20;;;;;;;;;;5158017;27;20212;-67
2022/03/17 11:21:14;;;;;;;7.37;6.67;;;;;;;;;;5152509;27;20264;-67
2022/03/17 11:24:05;;;;;;;7.67;7.07;;;;;;;;;;5158262;27;20408;-68
2022/03/17 11:27:07;;;;;;;7.27;6.67;;;;;;;;;;5158382;27;20727;-68
2022/03/17 11:30:00;;;;;;;7.37;6.77;;;;;;;;;;5152082;27;20214;-78
2022/03/17 11:32:54;;;;;;;7.10;6.60;;;;;;;;;;5159584;27;20240;-67
2022/03/17 11:35:41;;;;;;;7.93;7.30;;;;;;;;;;5153883;27;20263;-68
2022/03/17 11:38:32;;;;;;;8.10;7.40;;;;;;;;;;5162471;27;20275;-67
2022/03/17 11:41:23;;;;;;;7.90;7.30;;;;;;;;;;5160122;27;20290;-67
2022/03/17 11:44:09;;;;;;;7.87;7.27;;;;;;;;;;5164372;27;20740;-66
2022/03/17 11:46:57;;;;;;;7.60;7.00;;;;;;;;;;5148867;27;20744;-67
2022/03/17 11:49:46;;;;;;;7.80;7.07;;;;;;;;;;5158315;27;20209;-67
2022/03/17 11:52:33;;;;;;;8.33;7.57;;;;;;;;;;5157368;27;20839;-67
2022/03/17 11:55:32;;;;;;;8.83;8.03;;;;;;;;;;5155762;27;20214;-67
2022/03/17 11:58:37;;;;;;;8.30;7.60;;;;;;;;;;5160045;27;20284;-68
2022/03/17 12:01:27;;;;;;;8.83;8.03;;;;;;;;;;5155303;27;20225;-67
2022/03/17 12:04:22;;;;;;;8.70;8.10;;;;;;;;;;5157602;27;20206;-67
2022/03/17 12:07:11;;;;;;;9.23;8.43;;;;;;;;;;5157807;27;20206;-68
2022/03/17 12:09:58;;;;;;;9.60;8.80;;;;;;;;;;5157824;27;20559;-67
2022/03/17 12:12:48;;;;;;;9.53;8.73;;;;;;;;;;5153946;27;20218;-68
2022/03/17 12:15:39;;;;;;;9.60;8.80;;;;;;;;;;5151979;27;20207;-66
2022/03/17 12:18:26;;;;;;;9.80;8.90;;;;;;;;;;5156888;27;20210;-67
2022/03/17 12:21:13;;;;;;;10.33;9.30;;;;;;;;;;5158812;27;20198;-68
2022/03/17 12:24:03;;;;;;;9.47;8.67;;;;;;;;;;5161927;27;20241;-67
2022/03/17 12:26:50;;;;;;;10.00;9.23;;;;;;;;;;5142554;27;20291;-67
2022/03/17 12:29:37;;;;;;;10.43;9.60;;;;;;;;;;5148553;27;20198;-72
2022/03/17 12:32:28;;;;;;;10.63;9.73;;;;;;;;;;5158129;27;20219;-67
2022/03/17 12:35:16;;;;;;;10.83;9.90;;;;;;;;;;5153723;27;20211;-67
2022/03/17 12:38:05;;;;;;;11.00;10.03;;;;;;;;;;5158638;27;20688;-67
2022/03/17 12:40:53;;;;;;;10.93;10.03;;;;;;;;;;5149742;27;20223;-67
2022/03/17 12:43:40;;;;;;;10.80;9.90;;;;;;;;;;5160239;27;20247;-67
2022/03/17 12:46:27;;;;;;;11.43;10.43;;;;;;;;;;5152881;27;20278;-67
2022/03/17 12:49:15;;;;;;;11.17;9.97;;;;;;;;;;5150049;27;20292;-65
2022/03/17 12:52:12;;;;;;;11.20;10.20;;;;;;;;;;5159361;27;20357;-67
2022/03/17 12:55:01;;;;;;;11.50;10.40;;;;;;;;;;5157517;27;20289;-68
2022/03/17 12:57:49;;;;;;;10.97;9.93;;;;;;;;;;5154709;27;20263;-67
2022/03/17 13:00:42;;;;;;;11.10;10.20;;;;;;;;;;5145785;27;20198;-67
2022/03/17 13:03:29;;;;;;;11.70;10.57;;;;;;;;;;5152406;27;20233;-67
2022/03/17 13:09:29;;;;;;;11.77;10.73;;;;;;;;;;5155738;27;20196;-67
2022/03/17 13:15:26;;;;;;;11.33;10.43;;;;;;;;;;5155899;27;20202;-67
2022/03/17 13:18:16;;;;;;;12.07;10.97;;;;;;;;;;5160458;27;20213;-67
2022/03/17 13:21:04;;;;;;;11.43;10.33;;;;;;;;;;5163160;27;20196;-68
2022/03/17 13:23:53;;;;;;;11.60;10.50;;;;;;;;;;5154889;27;20206;-67
2022/03/17 13:26:40;;;;;;;12.00;10.87;;;;;;;;;;5144934;27;20299;-67
2022/03/17 13:29:27;;;;;;;11.50;10.53;;;;;;;;;;5156394;27;20293;-67
2022/03/17 13:32:17;;;;;;;11.57;10.47;;;;;;;;;;5155018;27;20414;-67
2022/03/17 13:35:08;;;;;;;11.87;10.77;;;;;;;;;;5161525;27;20708;-67
2022/03/17 13:38:05;;;;;;;12.27;11.17;;;;;;;;;;5162360;27;20672;-67
2022/03/17 13:40:55;;;;;;;10.90;9.90;;;;;;;;;;5149029;27;20200;-68
2022/03/17 13:43:42;;;;;;;11.13;10.20;;;;;;;;;;5159586;27;20591;-68
2022/03/17 13:46:38;;;;;;;12.00;10.90;;;;;;;;;;5156154;27;20953;-66
2022/03/17 13:49:27;;;;;;;11.13;10.07;;;;;;;;;;5157807;27;20344;-67
2022/03/17 13:52:14;;;;;;;11.90;10.80;;;;;;;;;;5153947;27;20613;-67
2022/03/17 13:55:01;;;;;;;11.63;10.53;;;;;;;;;;5156026;27;20223;-67
2022/03/17 13:57:49;;;;;;;11.97;10.87;;;;;;;;;;5155846;27;20666;-67
2022/03/17 14:00:37;;;;;;;11.97;10.80;;;;;;;;;;5150880;27;20234;-67
2022/03/17 14:03:30;;;;;;;12.10;11.07;;;;;;;;;;5166458;27;20228;-67
2022/03/17 14:06:17;;;;;;;12.07;10.93;;;;;;;;;;5158184;27;20197;-67
2022/03/17 14:09:06;;;;;;;11.60;10.50;;;;;;;;;;5161233;27;20325;-67
2022/03/17 14:11:53;;;;;;;11.57;10.57;;;;;;;;;;5158908;27;20307;-67
2022/03/17 14:14:41;;;;;;;12.30;11.20;;;;;;;;;;5153311;27;20243;-66
2022/03/17 14:17:28;;;;;;;12.03;10.93;;;;;;;;;;5162814;27;20358;-67
2022/03/17 14:20:15;;;;;;;12.00;11.00;;;;;;;;;;5156197;27;20747;-67
2022/03/17 14:26:07;;;;;;;11.67;10.67;;;;;;;;;;5165306;27;20238;-67
2022/03/17 14:28:54;;;;;;;11.80;10.83;;;;;;;;;;5160061;27;20231;-66
2022/03/17 14:31:45;;;;;;;11.30;10.30;;;;;;;;;;5167611;27;20220;-67
2022/03/17 14:34:32;;;;;;;11.47;10.30;;;;;;;;;;5161340;27;20267;-67
2022/03/17 14:37:19;;;;;;;11.27;10.27;;;;;;;;;;5153812;27;20277;-67
2022/03/17 14:40:07;;;;;;;12.33;11.13;;;;;;;;;;5159253;27;20287;-67
2022/03/17 14:42:54;;;;;;;12.50;11.37;;;;;;;;;;5168075;27;20312;-67
2022/03/17 14:45:41;;;;;;;12.00;10.90;;;;;;;;;;5162221;27;20678;-67
2022/03/17 14:48:30;;;;;;;11.80;10.70;;;;;;;;;;5152839;27;20204;-67
2022/03/17 14:51:17;;;;;;;12.03;11.03;;;;;;;;;;5163338;27;20297;-67
2022/03/17 14:54:04;;;;;;;12.33;11.23;;;;;;;;;;5159391;27;20207;-66
2022/03/17 14:56:50;;;;;;;12.07;11.07;;;;;;;;;;5162226;27;20243;-67
2022/03/17 14:59:37;;;;;;;12.50;11.40;;;;;;;;;;5159396;27;20272;-67
2022/03/17 15:02:25;;;;;;;11.23;10.23;;;;;;;;;;5160756;27;20189;-67
2022/03/17 15:05:13;;;;;;;11.60;10.60;;;;;;;;;;5154066;27;20213;-67
2022/03/17 15:08:00;;;;;;;12.20;11.20;;;;;;;;;;5159991;27;20250;-67
2022/03/17 15:10:47;;;;;;;11.93;10.90;;;;;;;;;;5155904;27;20687;-67
2022/03/17 15:13:34;;;;;;;11.77;10.77;;;;;;;;;;5155261;27;20268;-67
2022/03/17 15:16:21;;;;;;;13.17;11.97;;;;;;;;;;5154254;27;20204;-67
2022/03/17 15:19:08;;;;;;;11.20;10.27;;;;;;;;;;5154995;27;20201;-67
2022/03/17 15:21:57;;;;;;;12.20;11.20;;;;;;;;;;5160668;27;20196;-66
2022/03/17 15:24:44;;;;;;;12.17;11.07;;;;;;;;;;5157549;27;20211;-67
2022/03/17 15:30:36;;;;;;;12.10;11.00;;;;;;;;;;5157319;27;20291;-67
2022/03/17 15:33:23;;;;;;;12.00;10.93;;;;;;;;;;5152596;27;20260;-67
2022/03/17 15:36:10;;;;;;;12.60;11.43;;;;;;;;;;5160682;27;20442;-67
2022/03/17 15:38:59;;;;;;;11.90;10.90;;;;;;;;;;5161245;27;20602;-66
2022/03/17 15:41:46;;;;;;;12.73;11.60;;;;;;;;;;5163220;27;20200;-67
2022/03/17 15:44:33;;;;;;;12.40;11.20;;;;;;;;;;5156394;27;20245;-68
2022/03/17 15:47:20;;;;;;;12.37;11.17;;;;;;;;;;5154986;27;20658;-67
2022/03/17 15:50:09;;;;;;;12.63;11.53;;;;;;;;;;5161026;27;20245;-66
2022/03/17 15:52:57;;;;;;;12.40;11.30;;;;;;;;;;5158980;27;20258;-67
2022/03/17 15:55:46;;;;;;;13.23;12.03;;;;;;;;;;5166229;27;20258;-67
2022/03/17 15:58:33;;;;;;;12.80;11.73;;;;;;;;;;5160283;27;20239;-67
2022/03/17 16:01:20;;;;;;;13.37;12.20;;;;;;;;;;5164540;27;20329;-66
2022/03/17 16:04:09;;;;;;;12.83;11.70;;;;;;;;;;5153679;27;20238;-67
2022/03/17 16:06:57;;;;;;;13.67;12.37;;;;;;;;;;5160871;27;20200;-67
2022/03/17 16:15:57;;;;;;;13.47;12.23;;;;;;;;;;5157574;27;20232;-67
2022/03/17 16:18:44;;;;;;;12.90;11.80;;;;;;;;;;5157437;27;20682;-67
2022/03/17 16:21:32;;;;;;;12.80;11.73;;;;;;;;;;5157904;27;20660;-67
2022/03/17 16:24:19;;;;;;;14.00;12.60;;;;;;;;;;5163503;27;20203;-67
2022/03/17 16:27:06;;;;;;;13.67;12.47;;;;;;;;;;5153329;27;20203;-67
2022/03/17 16:29:56;;;;;;;14.13;12.73;;;;;;;;;;5154202;27;20197;-67
2022/03/17 16:32:43;;;;;;;13.37;12.17;;;;;;;;;;5147403;27;20220;-67
2022/03/17 16:35:30;;;;;;;13.87;12.57;;;;;;;;;;5156605;27;20201;-67
2022/03/17 16:38:18;;;;;;;14.03;12.73;;;;;;;;;;5156035;27;20309;-67
2022/03/17 16:41:08;;;;;;;14.33;13.03;;;;;;;;;;5157237;27;20211;-67
2022/03/17 16:43:55;;;;;;;14.10;12.90;;;;;;;;;;5142149;27;20277;-67
2022/03/17 16:46:43;;;;;;;13.77;12.53;;;;;;;;;;5155682;27;20211;-67
2022/03/17 16:49:31;;;;;;;13.43;12.20;;;;;;;;;;5158769;27;20215;-67
2022/03/17 16:52:19;;;;;;;13.37;12.00;;;;;;;;;;5156661;27;20710;-67
2022/03/17 16:55:07;;;;;;;14.03;12.73;;;;;;;;;;5159685;27;20197;-67
2022/03/17 16:57:54;;;;;;;13.77;12.47;;;;;;;;;;5154010;27;20310;-67
2022/03/17 17:00:41;;;;;;;13.80;12.60;;;;;;;;;;5160312;27;20658;-83
2022/03/17 17:03:35;;;;;;;13.87;12.53;;;;;;;;;;5156886;27;20675;-67
2022/03/17 17:06:22;;;;;;;14.30;13.00;;;;;;;;;;5156250;27;20208;-67
2022/03/17 17:09:09;;;;;;;14.10;12.97;;;;;;;;;;5163735;27;20327;-67
2022/03/17 17:11:56;;;;;;;13.80;12.60;;;;;;;;;;5149446;27;20533;-67
2022/03/17 17:14:43;;;;;;;14.53;13.10;;;;;;;;;;5151860;27;20208;-67